createdAt,value
2022-11-03T00:01:46.573Z,6.26
2022-11-03T00:04:15.510Z,6.25
2022-11-03T00:06:43.150Z,6.17
2022-11-03T00:09:12.518Z,6.17
2022-11-03T00:11:40.882Z,6.23
2022-11-03T00:14:09.304Z,6.25
2022-11-03T00:16:36.478Z,6.24
2022-11-03T00:19:03.398Z,6.22
2022-11-03T00:21:30.518Z,6.19
2022-11-03T00:23:57.094Z,6.15
2022-11-03T00:26:28.145Z,6.14
2022-11-03T00:28:56.977Z,6.12
2022-11-03T00:31:26.354Z,6.12
2022-11-03T00:33:54.174Z,6.12
2022-11-03T00:36:23.183Z,6.14
2022-11-03T00:38:49.822Z,6.04
2022-11-03T00:41:17.174Z,5.97
2022-11-03T00:43:43.801Z,5.97
2022-11-03T00:46:10.657Z,6.02
2022-11-03T00:48:40.523Z,5.95
2022-11-03T00:51:19.017Z,5.94
2022-11-03T00:53:53.961Z,5.94
2022-11-03T00:56:27.635Z,5.91
2022-11-03T00:58:55.251Z,5.82
2022-11-03T01:01:24.321Z,5.84
2022-11-03T01:04:12.432Z,5.89
2022-11-03T01:06:50.673Z,5.95
2022-11-03T01:09:28.888Z,5.98
2022-11-03T01:12:00.172Z,5.98
2022-11-03T01:14:33.373Z,5.98
2022-11-03T01:17:00.230Z,5.96
2022-11-03T01:19:26.941Z,5.97
2022-11-03T01:21:54.195Z,5.98
2022-11-03T01:24:21.740Z,5.98
2022-11-03T01:26:48.682Z,5.97
2022-11-03T01:29:15.452Z,5.94
2022-11-03T01:31:42.202Z,5.87
2022-11-03T01:34:20.846Z,5.84
2022-11-03T01:36:47.926Z,5.81
2022-11-03T01:39:17.655Z,5.79
2022-11-03T01:41:46.640Z,5.76
2022-11-03T01:44:13.046Z,5.71
2022-11-03T01:47:12.074Z,5.60
2022-11-03T01:49:54.825Z,5.53
2022-11-03T01:52:27.868Z,5.49
2022-11-03T01:55:04.945Z,5.46
2022-11-03T01:57:37.807Z,5.49
2022-11-03T02:00:06.594Z,5.52
2022-11-03T02:02:35.805Z,5.48
2022-11-03T02:05:04.792Z,5.46
2022-11-03T02:07:38.358Z,5.44
2022-11-03T02:10:06.092Z,5.42
2022-11-03T02:12:33.769Z,5.37
2022-11-03T02:15:08.183Z,5.38
2022-11-03T02:17:36.408Z,5.39
2022-11-03T02:20:12.311Z,5.36
2022-11-03T02:22:50.803Z,5.32
2022-11-03T02:25:43.557Z,5.41
2022-11-03T02:28:12.199Z,5.47
2022-11-03T02:31:08.457Z,5.49
2022-11-03T02:33:59.701Z,5.49
2022-11-03T02:36:44.902Z,5.47
2022-11-03T02:39:34.820Z,5.44
2022-11-03T02:42:04.548Z,5.43
2022-11-03T02:44:33.413Z,5.34
2022-11-03T02:47:04.089Z,5.17
2022-11-03T02:49:30.599Z,5.09
2022-11-03T02:52:05.282Z,5.13
2022-11-03T02:54:47.808Z,5.18
2022-11-03T02:57:25.783Z,5.24
2022-11-03T03:00:12.902Z,5.19
2022-11-03T03:02:43.300Z,5.19
2022-11-03T03:05:12.154Z,5.17
2022-11-03T03:07:44.536Z,5.15
2022-11-03T03:10:23.786Z,5.19
2022-11-03T03:12:54.583Z,5.14
2022-11-03T03:15:28.729Z,5.08
2022-11-03T03:18:07.834Z,4.84
2022-11-03T03:20:39.852Z,4.65
2022-11-03T03:23:16.866Z,4.44
2022-11-03T03:25:49.748Z,4.43
2022-11-03T03:28:32.482Z,4.61
2022-11-03T03:31:11.864Z,4.74
2022-11-03T03:33:42.109Z,4.81
2022-11-03T03:36:15.796Z,4.84
2022-11-03T03:38:49.435Z,4.89
2022-11-03T03:41:22.005Z,4.97
2022-11-03T03:43:55.659Z,4.93
2022-11-03T03:46:25.491Z,4.91
2022-11-03T03:48:51.979Z,4.90
2022-11-03T03:51:22.764Z,4.85
2022-11-03T03:53:53.491Z,4.84
2022-11-03T03:56:43.526Z,4.84
2022-11-03T03:59:10.032Z,4.85
2022-11-03T04:01:36.716Z,4.79
2022-11-03T04:04:03.423Z,4.80
2022-11-03T04:06:30.175Z,4.82
2022-11-03T04:08:56.732Z,4.82
2022-11-03T04:11:41.688Z,4.87
2022-11-03T04:14:28.506Z,4.85
2022-11-03T04:17:13.889Z,4.87
2022-11-03T04:19:58.879Z,4.80
2022-11-03T04:22:30.969Z,4.76
2022-11-03T04:24:58.467Z,4.73
2022-11-03T04:27:24.869Z,4.75
2022-11-03T04:29:52.695Z,4.73
2022-11-03T04:32:19.129Z,4.76
2022-11-03T04:34:47.422Z,4.71
2022-11-03T04:37:15.071Z,4.70
2022-11-03T04:39:41.978Z,4.70
2022-11-03T04:42:20.723Z,4.70
2022-11-03T04:44:49.012Z,4.69
2022-11-03T04:47:17.664Z,4.67
2022-11-03T04:49:46.806Z,4.66
2022-11-03T04:52:16.980Z,4.68
2022-11-03T04:54:44.894Z,4.66
2022-11-03T04:57:18.877Z,4.67
2022-11-03T04:59:49.612Z,4.70
2022-11-03T05:02:22.024Z,4.79
2022-11-03T05:04:48.617Z,4.75
2022-11-03T05:07:35.906Z,4.75
2022-11-03T05:10:04.454Z,4.73
2022-11-03T05:12:31.100Z,4.74
2022-11-03T05:14:58.917Z,4.75
2022-11-03T05:17:27.718Z,4.78
2022-11-03T05:20:02.133Z,4.84
2022-11-03T05:22:34.234Z,4.84
2022-11-03T05:25:03.749Z,4.90
2022-11-03T05:27:30.504Z,4.91
2022-11-03T05:30:00.970Z,4.91
2022-11-03T05:32:33.073Z,4.90
2022-11-03T05:34:59.724Z,4.94
2022-11-03T05:37:32.700Z,5.00
2022-11-03T05:40:22.750Z,4.96
2022-11-03T05:42:58.998Z,4.91
2022-11-03T05:45:36.632Z,4.88
2022-11-03T05:48:14.024Z,4.90
2022-11-03T05:50:42.111Z,4.89
2022-11-03T05:53:23.819Z,4.92
2022-11-03T05:55:50.585Z,4.93
2022-11-03T05:58:23.106Z,4.92
2022-11-03T06:00:50.009Z,4.92
2022-11-03T06:03:21.365Z,4.93
2022-11-03T06:05:47.893Z,4.91
2022-11-03T06:08:25.510Z,4.80
2022-11-03T06:10:53.671Z,4.80
2022-11-03T06:13:38.502Z,4.72
2022-11-03T06:16:31.829Z,4.68
2022-11-03T06:19:01.826Z,4.52
2022-11-03T06:21:28.612Z,4.46
2022-11-03T06:23:55.167Z,4.40
2022-11-03T06:26:25.243Z,4.32
2022-11-03T06:28:51.817Z,4.21
2022-11-03T06:31:23.162Z,4.22
2022-11-03T06:33:51.780Z,4.32
2022-11-03T06:36:37.260Z,4.41
2022-11-03T06:39:13.622Z,4.43
2022-11-03T06:41:40.062Z,4.52
2022-11-03T06:44:28.397Z,4.65
2022-11-03T06:46:59.993Z,4.75
2022-11-03T06:49:33.145Z,4.80
2022-11-03T06:52:11.896Z,4.83
2022-11-03T06:54:40.332Z,4.94
2022-11-03T06:57:14.344Z,4.85
2022-11-03T06:59:40.810Z,4.74
2022-11-03T07:02:37.537Z,4.75
2022-11-03T07:05:17.740Z,4.72
2022-11-03T07:07:44.178Z,4.70
2022-11-03T07:10:11.025Z,4.71
2022-11-03T07:12:37.692Z,4.76
2022-11-03T07:15:16.375Z,4.76
2022-11-03T07:17:42.748Z,4.84
2022-11-03T07:20:16.944Z,4.95
2022-11-03T07:22:45.770Z,5.14
2022-11-03T07:25:21.043Z,5.28
2022-11-03T07:27:55.030Z,5.39
2022-11-03T07:30:33.776Z,5.53
2022-11-03T07:33:12.549Z,5.61
2022-11-03T07:38:33.309Z,5.59
2022-11-03T07:41:00.244Z,5.74
2022-11-03T07:43:35.974Z,5.81
2022-11-03T07:46:04.041Z,5.85
2022-11-03T07:48:39.154Z,5.94
2022-11-03T07:51:17.664Z,6.22
2022-11-03T07:53:47.653Z,6.57
2022-11-03T07:56:20.274Z,7.00
2022-11-03T07:58:49.741Z,7.41
2022-11-03T08:01:37.126Z,7.73
2022-11-03T08:04:06.706Z,7.94
2022-11-03T08:06:33.414Z,8.17
2022-11-03T08:09:00.026Z,8.45
2022-11-03T08:11:29.264Z,9.25
2022-11-03T08:13:56.959Z,10.51
2022-11-03T08:16:24.167Z,11.14
2022-11-03T08:18:50.861Z,11.06
2022-11-03T08:21:17.460Z,11.21
2022-11-03T08:23:47.300Z,11.48
2022-11-03T08:26:14.761Z,12.15
2022-11-03T08:28:41.213Z,13.25
2022-11-03T08:31:12.287Z,13.20
2022-11-03T08:33:40.050Z,13.51
2022-11-03T08:36:11.868Z,14.56
2022-11-03T08:38:38.888Z,14.68
2022-11-03T08:41:05.600Z,15.16
2022-11-03T08:43:32.381Z,15.24
2022-11-03T08:46:08.362Z,14.85
2022-11-03T08:48:39.998Z,14.59
2022-11-03T08:51:08.364Z,15.26
2022-11-03T08:53:35.392Z,15.47
2022-11-03T08:56:02.695Z,15.52
2022-11-03T08:58:29.343Z,15.26
2022-11-03T09:00:55.861Z,14.58
2022-11-03T09:03:22.645Z,14.39
2022-11-03T09:05:49.933Z,14.70
2022-11-03T09:11:03.499Z,14.49
2022-11-03T09:13:30.054Z,15.15
2022-11-03T09:15:56.722Z,15.56
2022-11-03T09:18:23.258Z,15.13
2022-11-03T09:20:50.305Z,15.65
2022-11-03T09:23:19.269Z,15.04
2022-11-03T09:25:45.811Z,15.05
2022-11-03T09:28:14.690Z,14.08
2022-11-03T09:30:41.237Z,13.92
2022-11-03T09:33:07.623Z,13.80
2022-11-03T09:35:34.126Z,14.02
2022-11-03T09:38:00.852Z,14.27
2022-11-03T09:40:27.477Z,14.65
2022-11-03T09:42:54.191Z,14.25
2022-11-03T09:45:20.702Z,15.16
2022-11-03T09:47:47.311Z,14.91
2022-11-03T09:50:17.357Z,14.55
2022-11-03T09:52:50.325Z,14.87
2022-11-03T09:55:24.101Z,14.41
2022-11-03T09:57:52.918Z,14.86
2022-11-03T10:00:21.324Z,14.85
2022-11-03T10:02:49.619Z,14.42
2022-11-03T10:05:25.349Z,14.69
2022-11-03T10:07:58.145Z,14.86
2022-11-03T10:10:25.188Z,14.91
2022-11-03T10:12:55.893Z,14.67
2022-11-03T10:15:24.812Z,14.40
2022-11-03T10:17:52.146Z,14.40
2022-11-03T10:20:21.520Z,14.47
2022-11-03T10:22:53.165Z,14.56
2022-11-03T10:25:42.504Z,14.52
2022-11-03T10:28:18.113Z,14.69
2022-11-03T10:31:11.797Z,14.77
2022-11-03T10:33:41.349Z,14.80
2022-11-03T10:36:17.100Z,14.81
2022-11-03T10:38:44.379Z,14.79
2022-11-03T10:41:13.903Z,14.67
2022-11-03T10:43:42.304Z,14.61
2022-11-03T10:46:50.167Z,14.60
2022-11-03T10:49:12.495Z,14.54
2022-11-03T10:51:39.776Z,14.47
2022-11-03T10:54:11.659Z,14.37
2022-11-03T10:56:38.666Z,14.31
2022-11-03T10:59:05.277Z,14.33
2022-11-03T11:01:32.114Z,14.35
2022-11-03T11:03:59.091Z,14.44
2022-11-03T11:06:29.884Z,14.46
2022-11-03T11:09:04.138Z,14.40
2022-11-03T11:11:30.942Z,14.56
2022-11-03T11:14:23.956Z,14.69
2022-11-03T11:16:53.346Z,14.76
2022-11-03T11:19:22.466Z,14.81
2022-11-03T11:21:49.530Z,14.87
2022-11-03T11:24:44.525Z,14.92
2022-11-03T11:27:32.766Z,15.11
2022-11-03T11:30:00.509Z,15.21
2022-11-03T11:32:39.246Z,15.23
2022-11-03T11:35:26.222Z,15.22
2022-11-03T11:37:54.310Z,15.43
2022-11-03T11:40:23.609Z,15.41
2022-11-03T11:43:13.208Z,15.40
2022-11-03T11:46:17.210Z,15.45
2022-11-03T11:48:43.911Z,15.41
2022-11-03T11:51:12.265Z,15.50
2022-11-03T11:53:44.849Z,15.67
2022-11-03T11:56:13.970Z,15.73
2022-11-03T11:58:49.402Z,15.84
2022-11-03T12:01:30.816Z,15.84
2022-11-03T12:04:00.677Z,15.78
2022-11-03T12:06:39.025Z,15.74
2022-11-03T12:09:23.512Z,15.74
2022-11-03T12:11:56.443Z,15.64
2022-11-03T12:14:34.355Z,15.65
2022-11-03T12:17:16.075Z,15.57
2022-11-03T12:19:52.614Z,15.64
2022-11-03T12:22:26.179Z,15.76
2022-11-03T12:25:00.863Z,15.72
2022-11-03T12:27:27.320Z,15.68
2022-11-03T12:29:55.813Z,15.53
2022-11-03T12:32:33.936Z,15.48
2022-11-03T12:35:06.548Z,15.56
2022-11-03T12:37:33.044Z,15.52
2022-11-03T12:39:59.617Z,15.50
2022-11-03T12:42:28.200Z,15.41
2022-11-03T12:44:55.977Z,15.31
2022-11-03T12:47:22.687Z,15.24
2022-11-03T12:49:49.533Z,15.25
2022-11-03T12:52:22.059Z,15.25
2022-11-03T12:54:49.130Z,15.19
2022-11-03T12:57:15.939Z,15.27
2022-11-03T12:59:42.773Z,15.32
2022-11-03T13:02:10.862Z,15.34
2022-11-03T13:04:38.190Z,15.27
2022-11-03T13:07:04.992Z,15.22
2022-11-03T13:09:32.132Z,15.21
2022-11-03T13:12:17.269Z,15.25
2022-11-03T13:14:46.148Z,15.23
2022-11-03T13:17:14.456Z,15.14
2022-11-03T13:19:41.112Z,15.16
2022-11-03T13:22:07.583Z,15.18
2022-11-03T13:24:34.066Z,15.14
2022-11-03T13:27:00.529Z,15.18
2022-11-03T13:29:31.064Z,15.22
2022-11-03T13:32:00.780Z,15.21
2022-11-03T13:34:27.200Z,15.12
2022-11-03T13:36:53.830Z,15.07
2022-11-03T13:39:21.184Z,15.08
2022-11-03T13:41:48.037Z,15.08
2022-11-03T13:44:14.617Z,15.06
2022-11-03T13:46:41.110Z,15.09
2022-11-03T13:51:54.237Z,14.99
2022-11-03T13:59:53.999Z,14.80
2022-11-03T14:05:11.240Z,14.81
2022-11-03T14:07:38.147Z,14.81
2022-11-03T14:10:08.120Z,14.76
2022-11-03T14:12:36.170Z,14.58
2022-11-03T14:15:06.917Z,14.57
2022-11-03T14:17:33.412Z,14.63
2022-11-03T14:20:04.145Z,14.49
2022-11-03T14:22:31.958Z,14.56
2022-11-03T14:24:59.536Z,14.48
2022-11-03T14:27:26.357Z,14.42
2022-11-03T14:29:53.531Z,14.36
2022-11-03T14:32:21.352Z,14.32
2022-11-03T14:34:51.213Z,14.23
2022-11-03T14:37:18.177Z,14.30
2022-11-03T14:39:46.339Z,14.27
2022-11-03T14:42:17.251Z,14.17
2022-11-03T14:44:46.080Z,14.10
2022-11-03T14:47:15.849Z,14.00
2022-11-03T14:49:42.370Z,14.08
2022-11-03T14:52:09.039Z,14.12
2022-11-03T14:54:39.117Z,14.03
2022-11-03T14:57:06.023Z,13.99
2022-11-03T14:59:32.513Z,13.99
2022-11-03T15:01:59.639Z,13.97
2022-11-03T15:04:26.871Z,13.91
2022-11-03T15:06:54.379Z,13.88
2022-11-03T15:09:20.771Z,13.84
2022-11-03T15:11:47.337Z,13.79
2022-11-03T15:14:14.528Z,13.75
2022-11-03T15:16:41.148Z,13.66
2022-11-03T15:19:08.865Z,13.74
2022-11-03T15:21:35.599Z,13.69
2022-11-03T15:26:49.370Z,13.59
2022-11-03T15:29:15.997Z,13.52
2022-11-03T15:31:47.472Z,13.51
2022-11-03T15:34:15.214Z,13.51
2022-11-03T15:36:41.734Z,13.52
2022-11-03T15:39:08.228Z,13.32
2022-11-03T15:41:34.701Z,13.29
2022-11-03T15:44:01.434Z,13.23
2022-11-03T15:46:31.060Z,13.15
2022-11-03T15:48:57.932Z,13.09
2022-11-03T15:51:25.487Z,13.17
2022-11-03T15:53:57.914Z,13.15
2022-11-03T15:56:26.483Z,13.14
2022-11-03T15:58:54.292Z,13.13
2022-11-03T16:01:21.471Z,13.14
2022-11-03T16:03:48.222Z,13.05
2022-11-03T16:06:14.872Z,12.98
2022-11-03T16:08:41.560Z,12.93
2022-11-03T16:11:09.176Z,12.91
2022-11-03T16:13:37.744Z,12.96
2022-11-03T16:16:04.772Z,12.91
2022-11-03T16:18:31.472Z,12.90
2022-11-03T16:21:01.343Z,12.87
2022-11-03T16:23:30.586Z,12.87
2022-11-03T16:26:05.193Z,12.74
2022-11-03T16:28:31.943Z,12.71
2022-11-03T16:30:58.771Z,12.70
2022-11-03T16:33:25.458Z,12.63
2022-11-03T16:35:52.675Z,12.65
2022-11-03T16:38:19.295Z,12.58
2022-11-03T16:40:47.874Z,12.55
2022-11-03T16:43:14.412Z,12.54
2022-11-03T16:45:40.897Z,12.38
2022-11-03T16:48:12.703Z,12.34
2022-11-03T16:50:41.542Z,12.34
2022-11-03T16:53:11.138Z,12.34
2022-11-03T16:55:37.909Z,12.33
2022-11-03T16:58:04.435Z,12.29
2022-11-03T17:00:31.291Z,12.26
2022-11-03T17:02:59.747Z,12.20
2022-11-03T17:05:27.073Z,12.16
2022-11-03T17:07:54.410Z,12.19
2022-11-03T17:10:22.346Z,12.28
2022-11-03T17:12:49.818Z,12.20
2022-11-03T17:15:17.341Z,12.21
2022-11-03T17:17:44.264Z,12.18
2022-11-03T17:20:12.157Z,12.14
2022-11-03T17:22:39.127Z,12.18
2022-11-03T17:25:07.959Z,12.11
2022-11-03T17:27:42.003Z,12.13
2022-11-03T17:30:31.986Z,12.17
2022-11-03T17:33:05.398Z,12.12
2022-11-03T17:35:41.936Z,12.13
2022-11-03T17:38:15.394Z,12.18
2022-11-03T17:40:44.363Z,12.10
2022-11-03T17:43:31.252Z,12.09
2022-11-03T17:45:57.734Z,12.08
2022-11-03T17:48:24.279Z,12.02
2022-11-03T17:50:53.648Z,12.03
2022-11-03T17:53:23.359Z,12.00
2022-11-03T17:56:08.740Z,12.05
2022-11-03T17:58:43.210Z,12.00
2022-11-03T18:01:15.184Z,12.03
2022-11-03T18:03:41.956Z,12.04
2022-11-03T18:06:18.959Z,11.96
2022-11-03T18:08:49.184Z,11.93
2022-11-03T18:11:41.029Z,11.92
2022-11-03T18:14:07.507Z,11.89
2022-11-03T18:16:34.564Z,11.86
2022-11-03T18:19:01.055Z,11.81
2022-11-03T18:21:29.756Z,11.83
2022-11-03T18:23:56.251Z,11.83
2022-11-03T18:26:25.610Z,11.79
2022-11-03T18:28:52.481Z,11.74
2022-11-03T18:31:34.495Z,11.80
2022-11-03T18:34:09.760Z,11.72
2022-11-03T18:36:37.959Z,11.76
2022-11-03T18:39:04.644Z,11.69
2022-11-03T18:41:39.168Z,11.66
2022-11-03T18:44:29.181Z,11.61
2022-11-03T18:46:56.207Z,11.60
2022-11-03T18:49:24.719Z,11.70
2022-11-03T18:52:00.917Z,11.66
2022-11-03T18:54:30.644Z,11.66
2022-11-03T18:56:57.634Z,11.67
2022-11-03T18:59:31.728Z,11.58
2022-11-03T19:01:58.221Z,11.61
2022-11-03T19:04:24.819Z,11.60
2022-11-03T19:06:52.849Z,11.63
2022-11-03T19:09:22.621Z,11.60
2022-11-03T19:11:50.232Z,11.56
2022-11-03T19:14:23.714Z,11.53
2022-11-03T19:17:21.306Z,11.57
2022-11-03T19:19:39.282Z,11.55
2022-11-03T19:22:11.876Z,11.54
2022-11-03T19:24:38.544Z,11.57
2022-11-03T19:27:06.606Z,11.57
2022-11-03T19:29:38.432Z,11.66
2022-11-03T19:32:05.893Z,11.57
2022-11-03T19:34:35.231Z,11.52
2022-11-03T19:37:01.742Z,11.55
2022-11-03T19:39:37.074Z,11.49
2022-11-03T19:42:36.798Z,11.46
2022-11-03T19:45:10.804Z,11.38
2022-11-03T19:47:47.879Z,11.28
2022-11-03T19:50:23.221Z,11.26
2022-11-03T19:52:50.254Z,11.32
2022-11-03T19:55:19.358Z,11.45
2022-11-03T19:57:45.855Z,11.46
2022-11-03T20:00:17.404Z,11.54
2022-11-03T20:02:44.983Z,11.50
2022-11-03T20:05:15.124Z,11.51
2022-11-03T20:07:43.453Z,11.54
2022-11-03T20:10:17.847Z,11.48
2022-11-03T20:12:45.285Z,11.54
2022-11-03T20:15:16.336Z,11.58
2022-11-03T20:17:44.552Z,11.58
2022-11-03T20:20:20.086Z,11.53
2022-11-03T20:22:49.770Z,11.51
2022-11-03T20:25:20.936Z,11.44
2022-11-03T20:27:47.774Z,11.35
2022-11-03T20:30:17.221Z,11.50
2022-11-03T20:32:46.000Z,11.48
2022-11-03T20:35:23.127Z,11.50
2022-11-03T20:37:53.136Z,11.45
2022-11-03T20:40:22.540Z,11.42
2022-11-03T20:42:51.676Z,11.53
2022-11-03T20:45:20.527Z,11.47
2022-11-03T20:47:48.434Z,11.45
2022-11-03T20:50:16.729Z,11.47
2022-11-03T20:52:44.384Z,11.60
2022-11-03T20:55:24.984Z,11.39
2022-11-03T20:57:54.738Z,11.15
2022-11-03T21:00:27.174Z,11.14
2022-11-03T21:02:55.480Z,11.38
2022-11-03T21:05:27.582Z,11.48
2022-11-03T21:07:55.630Z,11.45
2022-11-03T21:10:23.633Z,11.38
2022-11-03T21:12:57.670Z,11.27
2022-11-03T21:16:03.618Z,11.21
2022-11-03T21:18:48.806Z,11.17
2022-11-03T21:21:20.809Z,11.36
2022-11-03T21:23:47.715Z,11.15
2022-11-03T21:26:14.150Z,11.06
2022-11-03T21:28:41.305Z,11.00
2022-11-03T21:31:13.869Z,11.04
2022-11-03T21:33:40.362Z,10.97
2022-11-03T21:36:07.209Z,11.04
2022-11-03T21:38:33.668Z,10.97
2022-11-03T21:41:20.073Z,10.92
2022-11-03T21:44:05.664Z,10.89
2022-11-03T21:46:32.135Z,10.83
2022-11-03T21:49:17.084Z,10.79
2022-11-03T21:51:43.511Z,10.83
2022-11-03T21:54:09.899Z,10.88
2022-11-03T21:56:36.265Z,10.86
2022-11-03T21:59:02.788Z,10.79
2022-11-03T22:01:29.282Z,10.76
2022-11-03T22:03:58.215Z,10.77
2022-11-03T22:06:24.575Z,10.76
2022-11-03T22:08:52.351Z,10.79
2022-11-03T22:11:21.598Z,10.70
2022-11-03T22:13:59.433Z,10.64
2022-11-03T22:16:42.347Z,10.64
2022-11-03T22:19:38.468Z,10.58
2022-11-03T22:22:29.253Z,10.56
2022-11-03T22:25:14.317Z,10.52
2022-11-03T22:27:41.578Z,10.55
2022-11-03T22:30:27.338Z,10.67
2022-11-03T22:32:55.855Z,10.68
2022-11-03T22:35:42.436Z,10.59
2022-11-03T22:38:14.535Z,10.51
2022-11-03T22:41:01.141Z,10.53
2022-11-03T22:43:46.152Z,10.51
2022-11-03T22:46:14.599Z,10.53
2022-11-03T22:48:41.558Z,10.49
2022-11-03T22:51:13.328Z,10.56
2022-11-03T22:53:58.881Z,10.65
2022-11-03T22:56:27.314Z,10.70
2022-11-03T22:58:54.185Z,10.68
2022-11-03T23:01:23.366Z,10.65
2022-11-03T23:03:50.263Z,10.69
2022-11-03T23:06:21.805Z,10.72
2022-11-03T23:08:49.653Z,10.72
2022-11-03T23:11:18.874Z,10.83
2022-11-03T23:13:53.877Z,10.88
2022-11-03T23:16:23.073Z,10.80
2022-11-03T23:19:08.094Z,10.78
2022-11-03T23:21:37.483Z,10.74
2022-11-03T23:24:23.099Z,10.84
2022-11-03T23:26:49.876Z,10.95
2022-11-03T23:29:16.959Z,10.92
2022-11-03T23:31:44.597Z,10.90
2022-11-03T23:34:12.454Z,10.71
2022-11-03T23:36:39.362Z,10.79
2022-11-03T23:39:06.381Z,10.98
2022-11-03T23:41:33.342Z,11.00
2022-11-03T23:43:59.872Z,11.09
2022-11-03T23:46:46.954Z,11.07
2022-11-03T23:49:14.405Z,11.05
2022-11-03T23:51:41.917Z,11.10
2022-11-03T23:54:10.387Z,11.06
2022-11-03T23:56:58.506Z,10.96
2022-11-03T23:59:26.401Z,11.01
